createdAt,value
2018-11-25T00:01:44.586Z,50.90
2018-11-25T00:04:13.858Z,51.47
2018-11-25T00:06:43.199Z,51.03
2018-11-25T00:09:12.916Z,49.40
2018-11-25T00:11:43.297Z,52.30
2018-11-25T00:14:12.838Z,52.80
2018-11-25T00:16:42.407Z,52.83
2018-11-25T00:19:11.969Z,54.87
2018-11-25T00:21:41.500Z,49.63
2018-11-25T00:24:11.025Z,49.57
2018-11-25T00:26:40.545Z,49.50
2018-11-25T00:29:10.070Z,45.93
2018-11-25T00:31:39.617Z,50.73
2018-11-25T00:34:09.198Z,52.70
2018-11-25T00:36:38.738Z,50.90
2018-11-25T00:39:09.523Z,53.70
2018-11-25T00:41:39.045Z,53.53
2018-11-25T00:44:08.588Z,51.20
2018-11-25T00:46:38.127Z,55.07
2018-11-25T00:49:07.681Z,52.83
2018-11-25T00:51:37.210Z,52.50
2018-11-25T00:54:06.766Z,52.77
2018-11-25T00:56:36.333Z,54.53
2018-11-25T00:59:06.298Z,57.63
2018-11-25T01:01:35.845Z,54.90
2018-11-25T01:04:05.505Z,50.30
2018-11-25T01:06:35.034Z,51.10
2018-11-25T01:09:07.173Z,55.33
2018-11-25T01:11:37.017Z,51.13
2018-11-25T01:14:06.674Z,53.37
2018-11-25T01:16:36.212Z,52.30
2018-11-25T01:19:06.158Z,54.63
2018-11-25T01:21:35.698Z,54.30
2018-11-25T01:24:05.521Z,55.67
2018-11-25T01:26:35.057Z,53.47
2018-11-25T01:29:04.586Z,55.00
2018-11-25T01:31:34.127Z,57.73
2018-11-25T01:34:03.653Z,52.83
2018-11-25T01:36:33.242Z,55.23
2018-11-25T01:39:02.757Z,56.40
2018-11-25T01:41:32.289Z,56.63
2018-11-25T01:44:01.469Z,58.90
2018-11-25T01:46:30.934Z,57.63
2018-11-25T01:49:00.535Z,56.23
2018-11-25T01:51:30.066Z,58.83
2018-11-25T01:53:59.590Z,62.43
2018-11-25T01:56:29.153Z,63.53
2018-11-25T01:58:58.737Z,61.77
2018-11-25T02:01:28.273Z,63.67
2018-11-25T02:03:57.841Z,64.60
2018-11-25T02:06:27.400Z,58.80
2018-11-25T02:08:56.921Z,60.87
2018-11-25T02:11:26.489Z,59.60
2018-11-25T02:13:56.033Z,61.10
2018-11-25T02:16:25.588Z,59.87
2018-11-25T02:18:55.114Z,57.43
2018-11-25T02:21:24.654Z,59.27
2018-11-25T02:23:54.225Z,58.33
2018-11-25T02:26:23.973Z,59.63
2018-11-25T02:28:53.525Z,58.87
2018-11-25T02:31:23.106Z,59.17
2018-11-25T02:33:53.177Z,58.10
2018-11-25T02:36:22.733Z,58.50
2018-11-25T02:38:52.273Z,59.60
2018-11-25T02:41:21.805Z,56.53
2018-11-25T02:43:51.364Z,59.33
2018-11-25T02:46:35.493Z,57.07
2018-11-25T02:49:05.441Z,57.73
2018-11-25T02:51:34.985Z,59.10
2018-11-25T02:54:04.929Z,55.17
2018-11-25T02:56:34.457Z,56.87
2018-11-25T02:59:03.987Z,57.17
2018-11-25T03:01:33.562Z,60.37
2018-11-25T03:04:02.748Z,56.03
2018-11-25T03:06:32.195Z,55.97
2018-11-25T03:09:01.769Z,56.30
2018-11-25T03:11:31.057Z,58.23
2018-11-25T03:14:00.577Z,59.50
2018-11-25T03:16:30.110Z,59.13
2018-11-25T03:18:59.630Z,59.87
2018-11-25T03:21:29.214Z,60.87
2018-11-25T03:23:58.740Z,63.30
2018-11-25T03:26:28.292Z,58.93
2018-11-25T03:28:57.850Z,57.93
2018-11-25T03:31:27.393Z,60.20
2018-11-25T03:33:56.929Z,56.87
2018-11-25T03:36:26.497Z,58.03
2018-11-25T03:38:56.053Z,61.17
2018-11-25T03:41:25.596Z,57.47
2018-11-25T03:43:55.131Z,59.10
2018-11-25T03:46:24.661Z,57.17
2018-11-25T03:48:54.197Z,57.10
2018-11-25T03:51:23.733Z,59.40
2018-11-25T03:53:53.271Z,59.57
2018-11-25T03:56:22.827Z,58.03
2018-11-25T03:58:52.360Z,59.77
2018-11-25T04:01:21.933Z,62.93
2018-11-25T04:03:51.475Z,63.77
2018-11-25T04:06:21.010Z,108.43
2018-11-25T04:08:50.188Z,61.87
2018-11-25T04:11:19.686Z,59.67
2018-11-25T04:13:49.177Z,62.10
2018-11-25T04:16:18.714Z,61.03
2018-11-25T04:18:48.046Z,65.73
2018-11-25T04:21:17.565Z,64.73
2018-11-25T04:23:47.086Z,69.37
2018-11-25T04:26:16.606Z,65.10
2018-11-25T04:28:46.178Z,66.97
2018-11-25T04:31:15.701Z,68.93
2018-11-25T04:33:45.226Z,71.07
2018-11-25T04:36:14.780Z,69.87
2018-11-25T04:38:44.314Z,70.07
2018-11-25T04:41:13.858Z,71.47
2018-11-25T04:43:43.393Z,69.37
2018-11-25T04:46:12.918Z,69.03
2018-11-25T04:48:42.453Z,71.83
2018-11-25T04:51:12.014Z,70.97
2018-11-25T04:53:41.541Z,74.53
2018-11-25T04:56:11.080Z,73.30
2018-11-25T04:58:40.635Z,73.27
2018-11-25T05:01:10.191Z,72.67
2018-11-25T05:03:39.717Z,70.63
2018-11-25T05:06:09.266Z,77.37
2018-11-25T05:08:38.787Z,75.73
2018-11-25T05:11:08.325Z,77.73
2018-11-25T05:13:37.861Z,78.40
2018-11-25T05:16:07.389Z,76.03
2018-11-25T05:18:36.945Z,76.73
2018-11-25T05:21:06.137Z,73.43
2018-11-25T05:23:35.569Z,77.00
2018-11-25T05:26:05.330Z,79.63
2018-11-25T05:28:34.866Z,75.03
2018-11-25T05:31:04.439Z,71.57
2018-11-25T05:33:33.998Z,73.00
2018-11-25T05:36:03.561Z,77.07
2018-11-25T05:38:33.136Z,77.27
2018-11-25T05:41:03.894Z,77.53
2018-11-25T05:43:33.432Z,75.63
2018-11-25T05:46:02.588Z,78.23
2018-11-25T05:48:32.034Z,86.53
2018-11-25T05:51:01.602Z,80.63
2018-11-25T05:53:31.133Z,79.43
2018-11-25T05:56:00.658Z,77.00
2018-11-25T05:58:30.217Z,80.27
2018-11-25T06:00:59.787Z,79.40
2018-11-25T06:03:29.297Z,74.43
2018-11-25T06:05:58.886Z,71.70
2018-11-25T06:08:28.642Z,74.63
2018-11-25T06:10:58.173Z,83.13
2018-11-25T06:13:28.407Z,80.53
2018-11-25T06:15:57.944Z,80.90
2018-11-25T06:18:27.505Z,89.23
2018-11-25T06:20:56.814Z,76.73
2018-11-25T06:23:26.360Z,81.87
2018-11-25T06:25:55.893Z,77.20
2018-11-25T06:28:25.471Z,81.17
2018-11-25T06:30:55.186Z,80.57
2018-11-25T06:33:24.825Z,87.93
2018-11-25T06:35:54.409Z,74.80
2018-11-25T06:38:24.466Z,81.90
2018-11-25T06:40:54.038Z,79.57
2018-11-25T06:43:23.662Z,83.93
2018-11-25T06:45:52.826Z,83.17
2018-11-25T06:48:22.478Z,83.37
2018-11-25T06:50:52.093Z,79.97
2018-11-25T06:53:21.650Z,79.30
2018-11-25T06:55:51.305Z,82.70
2018-11-25T06:58:21.085Z,74.57
2018-11-25T07:00:50.661Z,77.27
2018-11-25T07:03:20.261Z,75.10
2018-11-25T07:05:49.449Z,74.43
2018-11-25T07:08:18.963Z,77.27
2018-11-25T07:10:48.513Z,74.40
2018-11-25T07:13:18.059Z,77.33
2018-11-25T07:15:47.637Z,85.17
2018-11-25T07:18:17.218Z,76.97
2018-11-25T07:20:46.757Z,72.70
2018-11-25T07:23:16.319Z,78.60
2018-11-25T07:25:45.869Z,92.27
2018-11-25T07:28:18.438Z,73.70
2018-11-25T07:30:45.003Z,74.80
2018-11-25T07:33:14.709Z,76.53
2018-11-25T07:35:44.261Z,76.03
2018-11-25T07:38:13.786Z,66.37
2018-11-25T07:40:43.345Z,66.20
2018-11-25T07:43:12.892Z,68.47
2018-11-25T07:45:42.503Z,68.07
2018-11-25T07:48:12.089Z,67.37
2018-11-25T07:50:42.022Z,65.97
2018-11-25T07:53:11.595Z,66.93
2018-11-25T07:55:41.148Z,63.13
2018-11-25T07:58:10.317Z,60.27
2018-11-25T08:00:39.791Z,55.90
2018-11-25T08:03:09.478Z,59.20
2018-11-25T08:05:39.050Z,56.33
2018-11-25T08:08:08.602Z,55.80
2018-11-25T08:10:38.230Z,55.13
2018-11-25T08:13:07.763Z,52.83
2018-11-25T08:15:37.293Z,51.60
2018-11-25T08:18:06.934Z,50.40
2018-11-25T08:20:36.509Z,54.63
2018-11-25T08:23:06.106Z,53.90
2018-11-25T08:25:35.389Z,52.47
2018-11-25T08:28:05.366Z,51.77
2018-11-25T08:30:35.094Z,50.43
2018-11-25T08:33:04.721Z,46.13
2018-11-25T08:35:34.998Z,48.37
2018-11-25T08:38:04.617Z,51.07
2018-11-25T08:40:34.166Z,53.87
2018-11-25T08:43:03.765Z,53.73
2018-11-25T08:45:33.363Z,51.27
2018-11-25T08:48:02.945Z,52.37
2018-11-25T08:50:32.478Z,49.47
2018-11-25T08:53:02.065Z,49.20
2018-11-25T08:55:31.643Z,46.83
2018-11-25T08:58:00.962Z,50.90
2018-11-25T09:00:30.505Z,50.90
2018-11-25T09:03:00.058Z,50.60
2018-11-25T09:05:29.724Z,49.83
2018-11-25T09:07:59.286Z,52.80
2018-11-25T09:10:28.881Z,49.83
2018-11-25T09:12:58.858Z,52.10
2018-11-25T09:15:29.738Z,51.07
2018-11-25T09:17:59.542Z,48.53
2018-11-25T09:20:29.106Z,47.90
2018-11-25T09:22:58.731Z,47.07
2018-11-25T09:25:31.186Z,47.93
2018-11-25T09:28:01.891Z,49.50
2018-11-25T09:30:31.610Z,51.13
2018-11-25T09:33:01.130Z,49.47
2018-11-25T09:35:30.570Z,51.40
2018-11-25T09:38:00.137Z,47.90
2018-11-25T09:40:29.726Z,48.43
2018-11-25T09:42:59.093Z,49.50
2018-11-25T09:45:28.661Z,49.40
2018-11-25T09:47:58.296Z,50.27
2018-11-25T09:50:27.860Z,49.07
2018-11-25T09:52:57.400Z,49.33
2018-11-25T09:55:26.985Z,49.47
2018-11-25T09:58:00.415Z,48.33
2018-11-25T10:00:31.257Z,44.77
2018-11-25T10:03:00.855Z,44.03
2018-11-25T10:05:30.442Z,45.03
2018-11-25T10:08:00.619Z,45.87
2018-11-25T10:10:30.193Z,46.60
2018-11-25T10:12:59.511Z,49.63
2018-11-25T10:15:29.783Z,43.37
2018-11-25T10:18:00.253Z,42.33
2018-11-25T10:20:30.377Z,43.27
2018-11-25T10:22:59.943Z,44.43
2018-11-25T10:25:29.523Z,45.80
2018-11-25T10:27:59.060Z,47.17
2018-11-25T10:30:30.453Z,46.00
2018-11-25T10:33:03.196Z,48.53
2018-11-25T10:35:32.793Z,48.47
2018-11-25T10:38:02.444Z,50.43
2018-11-25T10:40:31.999Z,51.60
2018-11-25T10:43:01.578Z,49.13
2018-11-25T10:45:31.134Z,53.20
2018-11-25T10:48:00.737Z,52.27
2018-11-25T10:50:30.173Z,51.70
2018-11-25T10:52:59.702Z,56.00
2018-11-25T10:55:29.457Z,64.97
2018-11-25T10:57:59.041Z,63.53
2018-11-25T11:00:37.191Z,52.73
2018-11-25T11:03:13.514Z,51.07
2018-11-25T11:05:48.869Z,54.17
2018-11-25T11:08:19.080Z,52.80
2018-11-25T11:10:48.716Z,52.43
2018-11-25T11:13:18.389Z,52.20
2018-11-25T11:15:48.005Z,49.77
2018-11-25T11:18:17.570Z,47.33
2018-11-25T11:20:47.141Z,47.90
2018-11-25T11:23:16.748Z,46.87
2018-11-25T11:25:46.864Z,48.57
2018-11-25T11:28:16.433Z,47.63
2018-11-25T11:30:46.010Z,44.03
2018-11-25T11:33:15.642Z,44.50
2018-11-25T11:37:59.494Z,44.07
2018-11-25T11:40:29.118Z,47.20
2018-11-25T11:42:58.546Z,46.10
2018-11-25T11:45:28.113Z,46.30
2018-11-25T11:47:57.950Z,45.67
2018-11-25T11:50:28.197Z,43.60
2018-11-25T11:52:57.396Z,44.60
2018-11-25T11:55:27.029Z,44.67
2018-11-25T11:57:56.675Z,40.60
2018-11-25T12:00:28.782Z,43.83
2018-11-25T12:02:58.865Z,43.50
2018-11-25T12:05:28.422Z,44.60
2018-11-25T12:07:57.848Z,46.83
2018-11-25T12:10:27.421Z,44.63
2018-11-25T12:12:57.147Z,43.77
2018-11-25T12:15:30.686Z,46.70
2018-11-25T12:17:56.745Z,46.07
2018-11-25T12:20:28.475Z,43.87
2018-11-25T12:22:58.656Z,45.10
2018-11-25T12:25:28.322Z,46.07
2018-11-25T12:27:57.500Z,47.30
2018-11-25T12:30:27.013Z,52.13
2018-11-25T12:32:56.598Z,49.50
2018-11-25T12:35:26.799Z,46.70
2018-11-25T12:37:56.353Z,44.37
2018-11-25T12:40:25.509Z,48.40
2018-11-25T12:42:56.200Z,45.33
2018-11-25T12:45:26.006Z,43.70
2018-11-25T12:47:55.817Z,43.47
2018-11-25T12:50:26.364Z,45.43
2018-11-25T12:52:56.127Z,45.00
2018-11-25T12:55:26.916Z,43.23
2018-11-25T12:57:57.214Z,43.83
2018-11-25T13:00:31.141Z,42.33
2018-11-25T13:03:00.695Z,44.87
2018-11-25T13:05:30.277Z,44.73
2018-11-25T13:07:59.853Z,45.53
2018-11-25T13:10:29.417Z,47.13
2018-11-25T13:12:58.632Z,49.47
2018-11-25T13:15:28.481Z,52.07
2018-11-25T13:17:58.035Z,51.43
2018-11-25T13:20:27.610Z,50.03
2018-11-25T13:22:57.529Z,48.60
2018-11-25T13:25:27.090Z,50.17
2018-11-25T13:27:56.295Z,51.40
2018-11-25T13:30:28.058Z,52.37
2018-11-25T13:32:59.803Z,50.10
2018-11-25T13:35:32.497Z,51.37
2018-11-25T13:38:02.136Z,51.70
2018-11-25T13:40:31.865Z,52.83
2018-11-25T13:43:01.486Z,51.00
2018-11-25T13:45:31.057Z,49.50
2018-11-25T13:48:00.631Z,49.43
2018-11-25T13:50:29.876Z,47.10
2018-11-25T13:52:59.348Z,46.33
2018-11-25T13:55:29.233Z,46.40
2018-11-25T13:57:58.353Z,46.60
2018-11-25T14:00:32.994Z,46.33
2018-11-25T14:03:03.302Z,48.17
2018-11-25T14:05:32.961Z,47.53
2018-11-25T14:08:02.510Z,45.83
2018-11-25T14:10:33.769Z,46.87
2018-11-25T14:13:03.322Z,45.60
2018-11-25T14:15:32.870Z,46.17
2018-11-25T14:18:02.439Z,43.63
2018-11-25T14:20:31.998Z,45.20
2018-11-25T14:23:01.223Z,42.90
2018-11-25T14:25:30.785Z,43.83
2018-11-25T14:28:01.819Z,42.23
2018-11-25T14:30:32.169Z,43.10
2018-11-25T14:33:01.714Z,43.23
2018-11-25T14:35:31.346Z,47.17
2018-11-25T14:38:00.541Z,49.33
2018-11-25T14:40:30.072Z,50.83
2018-11-25T14:42:59.242Z,45.47
2018-11-25T14:45:28.719Z,49.17
2018-11-25T14:47:58.267Z,45.27
2018-11-25T14:50:27.841Z,48.73
2018-11-25T14:52:57.393Z,50.67
2018-11-25T14:55:26.933Z,52.20
2018-11-25T14:57:56.502Z,52.93
2018-11-25T15:00:26.068Z,51.33
2018-11-25T15:03:00.064Z,55.47
2018-11-25T15:05:33.502Z,52.33
2018-11-25T15:08:03.102Z,54.40
2018-11-25T15:10:32.713Z,57.73
2018-11-25T15:13:02.279Z,56.23
2018-11-25T15:15:31.837Z,55.03
2018-11-25T15:18:01.430Z,54.97
2018-11-25T15:20:30.990Z,55.50
2018-11-25T15:23:02.474Z,55.70
2018-11-25T15:25:34.122Z,55.53
2018-11-25T15:28:03.762Z,57.43
2018-11-25T15:30:33.323Z,61.13
2018-11-25T15:33:02.873Z,66.37
2018-11-25T15:35:32.428Z,72.90
2018-11-25T15:38:01.992Z,68.00
2018-11-25T15:40:32.087Z,65.13
2018-11-25T15:43:01.653Z,60.17
2018-11-25T15:45:31.266Z,59.50
2018-11-25T15:48:01.625Z,57.50
2018-11-25T15:50:31.750Z,57.37
2018-11-25T15:53:00.916Z,58.10
2018-11-25T15:55:30.413Z,59.77
2018-11-25T15:57:59.750Z,60.27
2018-11-25T16:00:29.406Z,58.13
2018-11-25T16:02:59.627Z,59.23
2018-11-25T16:05:31.786Z,59.87
2018-11-25T16:08:00.996Z,59.10
2018-11-25T16:10:30.466Z,60.23
2018-11-25T16:13:00.118Z,64.13
2018-11-25T16:15:30.747Z,62.33
2018-11-25T16:18:01.403Z,58.03
2018-11-25T16:20:30.803Z,59.90
2018-11-25T16:23:01.254Z,55.40
2018-11-25T16:25:35.822Z,60.77
2018-11-25T16:28:27.830Z,55.33
2018-11-25T16:30:57.510Z,55.90
2018-11-25T16:33:27.170Z,57.37
2018-11-25T16:35:56.409Z,58.17
2018-11-25T16:38:25.866Z,52.80
2018-11-25T16:40:55.269Z,53.13
2018-11-25T16:43:26.573Z,54.80
2018-11-25T16:45:56.213Z,53.23
2018-11-25T16:48:25.756Z,55.77
2018-11-25T16:50:55.373Z,51.63
2018-11-25T16:53:24.965Z,54.30
2018-11-25T16:55:54.226Z,54.77
2018-11-25T16:58:23.382Z,59.33
2018-11-25T17:00:52.955Z,61.10
2018-11-25T17:03:22.592Z,61.57
2018-11-25T17:05:53.097Z,60.30
2018-11-25T17:08:27.246Z,62.47
2018-11-25T17:10:56.719Z,61.97
2018-11-25T17:13:25.881Z,57.83
2018-11-25T17:15:55.406Z,56.07
2018-11-25T17:18:24.596Z,55.60
2018-11-25T17:20:54.049Z,53.87
2018-11-25T17:23:23.613Z,50.20
2018-11-25T17:25:53.227Z,47.13
2018-11-25T17:28:22.425Z,47.27
2018-11-25T17:30:51.282Z,49.33
2018-11-25T17:33:21.802Z,46.70
2018-11-25T17:35:49.919Z,47.30
2018-11-25T17:38:19.123Z,48.37
2018-11-25T17:40:48.237Z,46.70
2018-11-25T17:43:20.727Z,51.37
2018-11-25T17:45:50.362Z,49.43
2018-11-25T17:48:19.575Z,48.30
2018-11-25T17:50:49.083Z,47.97
2018-11-25T17:53:20.917Z,44.30
2018-11-25T17:55:47.872Z,45.73
2018-11-25T17:58:17.447Z,47.20
2018-11-25T18:00:53.126Z,47.13
2018-11-25T18:03:25.050Z,45.07
2018-11-25T18:05:54.640Z,44.90
2018-11-25T18:08:23.891Z,45.67
2018-11-25T18:10:53.453Z,45.27
2018-11-25T18:13:24.480Z,43.73
2018-11-25T18:15:55.593Z,43.30
2018-11-25T18:18:41.260Z,42.33
2018-11-25T18:21:11.438Z,45.03
2018-11-25T18:23:40.624Z,45.10
2018-11-25T18:26:09.693Z,48.10
2018-11-25T18:28:39.238Z,45.27
2018-11-25T18:31:08.813Z,41.50
2018-11-25T18:33:38.362Z,47.37
2018-11-25T18:36:09.398Z,46.40
2018-11-25T18:38:39.030Z,45.20
2018-11-25T18:41:08.225Z,46.53
2018-11-25T18:43:37.746Z,45.83
2018-11-25T18:46:07.823Z,49.80
2018-11-25T18:48:39.790Z,49.57
2018-11-25T18:51:09.511Z,48.53
2018-11-25T18:53:38.787Z,48.47
2018-11-25T18:56:08.146Z,52.27
2018-11-25T18:58:37.610Z,51.80
2018-11-25T19:01:16.087Z,53.30
2018-11-25T19:03:45.674Z,53.30
2018-11-25T19:06:15.246Z,51.97
2018-11-25T19:08:44.425Z,55.70
2018-11-25T19:11:13.971Z,56.57
2018-11-25T19:13:44.022Z,52.57
2018-11-25T19:16:14.402Z,50.77
2018-11-25T19:18:44.074Z,50.77
2018-11-25T19:21:14.647Z,49.93
2018-11-25T19:23:45.045Z,52.23
2018-11-25T19:26:14.382Z,50.17
2018-11-25T19:28:43.551Z,52.87
2018-11-25T19:31:13.161Z,50.67
2018-11-25T19:33:43.046Z,50.87
2018-11-25T19:36:12.829Z,50.23
2018-11-25T19:38:42.466Z,50.27
2018-11-25T19:41:12.700Z,48.70
2018-11-25T19:43:42.666Z,49.83
2018-11-25T19:46:12.415Z,48.47
2018-11-25T19:48:42.595Z,49.83
2018-11-25T19:51:17.513Z,49.13
2018-11-25T19:53:42.449Z,49.13
2018-11-25T19:56:11.654Z,48.87
2018-11-25T19:58:41.175Z,50.13
2018-11-25T20:01:11.026Z,50.67
2018-11-25T20:03:40.502Z,50.17
2018-11-25T20:06:10.134Z,49.47
2018-11-25T20:08:39.329Z,49.27
2018-11-25T20:11:08.466Z,47.57
2018-11-25T20:13:38.085Z,51.93
2018-11-25T20:17:15.458Z,48.37
2018-11-25T20:19:45.246Z,50.30
2018-11-25T20:22:24.411Z,48.97
2018-11-25T20:24:54.383Z,48.63
2018-11-25T20:27:29.317Z,50.37
2018-11-25T20:29:58.908Z,50.33
2018-11-25T20:32:33.870Z,50.17
2018-11-25T20:35:03.759Z,50.00
2018-11-25T20:37:32.994Z,49.67
2018-11-25T20:40:02.593Z,49.90
2018-11-25T20:42:31.951Z,47.73
2018-11-25T20:45:01.642Z,48.93
2018-11-25T20:47:30.957Z,48.07
2018-11-25T20:50:00.426Z,49.80
2018-11-25T20:52:35.375Z,49.93
2018-11-25T20:55:05.766Z,50.57
2018-11-25T20:57:35.346Z,45.43
2018-11-25T21:00:05.535Z,49.57
2018-11-25T21:02:34.950Z,48.70
2018-11-25T21:05:05.597Z,48.63
2018-11-25T21:07:35.174Z,46.13
2018-11-25T21:10:05.532Z,47.80
2018-11-25T21:12:35.193Z,46.50
2018-11-25T21:15:06.100Z,48.37
2018-11-25T21:17:35.934Z,50.57
2018-11-25T21:20:14.170Z,53.27
2018-11-25T21:22:43.781Z,49.33
2018-11-25T21:25:13.789Z,51.90
2018-11-25T21:27:42.924Z,45.80
2018-11-25T21:30:14.177Z,48.83
2018-11-25T21:32:43.361Z,50.67
2018-11-25T21:35:14.634Z,49.87
2018-11-25T21:37:44.250Z,49.43
2018-11-25T21:40:15.887Z,50.83
2018-11-25T21:42:45.464Z,52.40
2018-11-25T21:45:15.226Z,52.70
2018-11-25T21:47:45.815Z,53.80
2018-11-25T21:50:22.598Z,51.87
2018-11-25T21:52:52.270Z,51.73
2018-11-25T21:55:21.958Z,51.40
2018-11-25T21:57:51.214Z,50.00
2018-11-25T22:00:25.394Z,48.47
2018-11-25T22:02:59.937Z,48.10
2018-11-25T22:05:30.431Z,49.57
2018-11-25T22:08:00.048Z,45.90
2018-11-25T22:10:29.601Z,45.80
2018-11-25T22:12:59.161Z,45.87
2018-11-25T22:15:28.737Z,48.37
2018-11-25T22:17:58.286Z,45.60
2018-11-25T22:20:27.874Z,47.83
2018-11-25T22:22:57.438Z,45.37
2018-11-25T22:25:26.967Z,43.40
2018-11-25T22:27:56.745Z,45.23
2018-11-25T22:30:26.318Z,46.47
2018-11-25T22:32:55.896Z,44.80
2018-11-25T22:35:38.586Z,44.80
2018-11-25T22:38:08.256Z,46.83
2018-11-25T22:40:37.794Z,45.83
2018-11-25T22:43:07.383Z,49.00
2018-11-25T22:45:36.529Z,45.57
2018-11-25T22:48:06.110Z,47.40
2018-11-25T22:50:35.670Z,45.60
2018-11-25T22:53:05.982Z,48.40
2018-11-25T22:55:35.622Z,47.37
2018-11-25T22:58:05.412Z,48.87
2018-11-25T23:00:36.305Z,48.27
2018-11-25T23:03:06.040Z,45.07
2018-11-25T23:06:50.338Z,44.53
2018-11-25T23:09:19.883Z,46.23
2018-11-25T23:11:49.429Z,40.23
2018-11-25T23:14:18.592Z,43.53
2018-11-25T23:16:48.054Z,40.73
2018-11-25T23:19:17.642Z,41.87
2018-11-25T23:21:47.201Z,41.67
2018-11-25T23:24:16.806Z,41.70
2018-11-25T23:26:46.353Z,42.67
2018-11-25T23:29:15.936Z,40.83
2018-11-25T23:31:45.506Z,39.93
2018-11-25T23:34:15.062Z,41.33
2018-11-25T23:36:44.667Z,39.60
2018-11-25T23:39:14.261Z,40.93
2018-11-25T23:41:43.799Z,38.50
2018-11-25T23:44:13.333Z,39.00
2018-11-25T23:46:42.873Z,39.80
2018-11-25T23:49:12.438Z,39.70
2018-11-25T23:51:42.026Z,40.63
2018-11-25T23:54:11.575Z,36.77
2018-11-25T23:56:41.181Z,41.37
2018-11-25T23:59:10.757Z,38.20
